Aigle Des Mers — FO4883 — position and weather

sailwx.info

Track history (hours):
 
Tides and Currents Weather Stations Pressure Air Temp Water Temp Dewpoint Dewpoint Depression Visibility Wind Speed Wind Dir Waves Ship Positions

Aigle Des Mers

Last reported at 2014-Aug-24 22:08 UTC. Time now 2014-Aug-27 19:17 UTC.
Position N 47°56' W 004°41'.

Length 16 m.

Type: Fishing. MMSI: 227318010.

Date/timePositionNaut miles runAvg speedWind from/ knotsBaromVisibWave heightAir tempDewpointWater temp
2014-Aug-24 22:08N 47°56' W 004°41'4 7.3
2014-Aug-24 21:33N 47°57' W 004°47'4 3.8
2014-Aug-24 20:33N 47°56' W 004°41'  
2014-Aug-22 02:33N 47°52' W 004°29'9 8.7
2014-Aug-22 01:33N 47°56' W 004°41'8 8.5
2014-Aug-22 00:33N 47°60' W 004°52'1 1.2
2014-Aug-21 23:34N 48°00' W 004°51'1 1.1
2014-Aug-21 22:33N 48°00' W 004°52'1 0.9
2014-Aug-21 21:33N 48°01' W 004°52'7 7.1
2014-Aug-21 20:34N 47°57' W 004°44'6 0.4
2014-Aug-21 04:33N 47°58' W 004°36'6 6.2
2014-Aug-21 03:33N 47°56' W 004°45'6 6.1
2014-Aug-21 02:33N 47°58' W 004°53'1 1.1
2014-Aug-21 01:33N 47°59' W 004°53'1 1.2
2014-Aug-21 00:34N 47°60' W 004°51'1 1.1
2014-Aug-20 23:34N 48°00' W 004°50'2 1.7
2014-Aug-20 22:34N 47°60' W 004°48'20 1.1
2014-Aug-20 04:33N 47°48' W 004°23'9 9.0
2014-Aug-20 03:33N 47°53' W 004°35'8 3.9
2014-Aug-20 01:34N 47°56' W 004°45'2 2.5
2014-Aug-20 00:33N 47°59' W 004°44'7 6.9
2014-Aug-19 23:33N 48°05' W 004°46'1 1.3
2014-Aug-19 22:34N 48°06' W 004°45'1 0.6
2014-Aug-19 21:33N 48°07' W 004°45'1 0.9
2014-Aug-19 20:34N 48°06' W 004°45'0 0.2
2014-Aug-19 19:33N 48°06' W 004°45'14 0.9
2014-Aug-19 04:33N 47°56' W 004°30'2 1.7
2014-Aug-19 03:33N 47°58' W 004°29'8 6.0
2014-Aug-19 02:18N 47°57' W 004°41'6 7.8
2014-Aug-19 01:33N 47°59' W 004°49'1 1.0
2014-Aug-19 00:34N 47°60' W 004°49'5 2.3
2014-Aug-18 22:33N 47°55' W 004°49'4 4.3
2014-Aug-18 21:34N 47°59' W 004°48'20 1.2
2014-Aug-18 04:33N 47°49' W 004°23'17 8.5
2014-Aug-18 02:30N 47°56' W 004°46'2 1.7
2014-Aug-18 01:33N 47°57' W 004°48'3 2.5
2014-Aug-18 00:33N 47°59' W 004°49'  
Track history (hours):
 
Tides and Currents Weather Stations Pressure Air Temp Water Temp Dewpoint Dewpoint Depression Visibility Wind Speed Wind Dir Waves Ship Positions

Aigle Des Mers

Last reported at 2014-Aug-24 22:08 UTC. Time now 2014-Aug-27 19:17 UTC.
Position N 47°56' W 004°41'.

Length 16 m.

Type: Fishing. MMSI: 227318010.

Date/timePositionNaut miles runAvg speedWind from/ knotsBaromVisibWave heightAir tempDewpointWater temp
2014-Aug-24 22:08N 47°56' W 004°41'4 7.3
2014-Aug-24 21:33N 47°57' W 004°47'4 3.8
2014-Aug-24 20:33N 47°56' W 004°41'  
2014-Aug-22 02:33N 47°52' W 004°29'9 8.7
2014-Aug-22 01:33N 47°56' W 004°41'8 8.5
2014-Aug-22 00:33N 47°60' W 004°52'1 1.2
2014-Aug-21 23:34N 48°00' W 004°51'1 1.1
2014-Aug-21 22:33N 48°00' W 004°52'1 0.9
2014-Aug-21 21:33N 48°01' W 004°52'7 7.1
2014-Aug-21 20:34N 47°57' W 004°44'6 0.4
2014-Aug-21 04:33N 47°58' W 004°36'6 6.2
2014-Aug-21 03:33N 47°56' W 004°45'6 6.1
2014-Aug-21 02:33N 47°58' W 004°53'1 1.1
2014-Aug-21 01:33N 47°59' W 004°53'1 1.2
2014-Aug-21 00:34N 47°60' W 004°51'1 1.1
2014-Aug-20 23:34N 48°00' W 004°50'2 1.7
2014-Aug-20 22:34N 47°60' W 004°48'20 1.1
2014-Aug-20 04:33N 47°48' W 004°23'9 9.0
2014-Aug-20 03:33N 47°53' W 004°35'8 3.9
2014-Aug-20 01:34N 47°56' W 004°45'2 2.5
2014-Aug-20 00:33N 47°59' W 004°44'7 6.9
2014-Aug-19 23:33N 48°05' W 004°46'1 1.3
2014-Aug-19 22:34N 48°06' W 004°45'1 0.6
2014-Aug-19 21:33N 48°07' W 004°45'1 0.9
2014-Aug-19 20:34N 48°06' W 004°45'0 0.2
2014-Aug-19 19:33N 48°06' W 004°45'14 0.9
2014-Aug-19 04:33N 47°56' W 004°30'2 1.7
2014-Aug-19 03:33N 47°58' W 004°29'8 6.0
2014-Aug-19 02:18N 47°57' W 004°41'6 7.8
2014-Aug-19 01:33N 47°59' W 004°49'1 1.0
2014-Aug-19 00:34N 47°60' W 004°49'5 2.3
2014-Aug-18 22:33N 47°55' W 004°49'4 4.3
2014-Aug-18 21:34N 47°59' W 004°48'20 1.2
2014-Aug-18 04:33N 47°49' W 004°23'17 8.5
2014-Aug-18 02:30N 47°56' W 004°46'2 1.7
2014-Aug-18 01:33N 47°57' W 004°48'3 2.5
2014-Aug-18 00:33N 47°59' W 004°49'  

Dump ship's entire track history